Time;durP1;ratioP1;P1;durP2;ratioP2;P2;SDS_P1;SDS_P2;PMS_P1;PMS_P2;Temp;Humidity;BMP_temperature;BMP_pressure;BME280_temperature;BME280_humidity;BME280_pressure;Samples;Min_cycle;Max_cycle;Signal;HPM_P1;HPM_P2
2021/12/01 02:18:55;;;;;;;1.70;0.80;;;7.00;57.90;;;5.27;64.00;99849.00;10143035;23;20053;31
2021/12/01 02:23:17;;;;;;;3.70;1.05;;;7.00;58.00;;;5.27;64.41;99843.81;8250774;28;20141;-88
2021/12/01 02:27:39;;;;;;;0.85;0.85;;;7.00;57.90;;;5.26;64.38;99844.72;8263395;28;20130;-88
2021/12/01 02:32:00;;;;;;;2.53;0.90;;;6.90;58.20;;;5.22;64.15;99840.59;8249052;28;20495;-88
2021/12/01 02:36:23;;;;;;;2.15;0.68;;;6.90;58.00;;;5.26;64.04;99835.19;8259606;28;20133;-88
2021/12/01 02:40:46;;;;;;;1.90;0.95;;;6.90;58.10;;;5.13;64.06;99808.25;8265684;28;20469;-88
2021/12/01 02:45:08;;;;;;;2.22;1.17;;;6.90;58.10;;;5.17;64.61;99804.59;8262426;28;20185;-88
2021/12/01 02:49:30;;;;;;;2.20;0.80;;;6.80;58.00;;;5.17;64.08;99804.59;8268618;28;20133;-87
2021/12/01 02:53:52;;;;;;;1.88;1.00;;;6.80;58.00;;;5.13;64.24;99787.53;8249072;28;20040;-88
2021/12/01 02:58:18;;;;;;;2.25;0.80;;;6.90;58.10;;;5.12;64.26;99797.94;8256406;28;20132;-88
2021/12/01 03:02:41;;;;;;;1.77;0.88;;;6.80;58.10;;;5.16;64.18;99809.81;8254568;28;20543;-86
2021/12/01 03:07:05;;;;;;;2.42;1.05;;;6.90;58.20;;;5.09;64.34;99796.34;8249797;28;20174;-86
2021/12/01 03:11:27;;;;;;;2.92;1.23;;;6.80;58.20;;;5.06;64.27;99771.44;8265207;28;20046;-88
2021/12/01 03:15:49;;;;;;;3.20;1.30;;;6.80;58.30;;;5.10;64.71;99774.72;8259498;28;20124;-87
2021/12/01 03:20:14;;;;;;;5.22;1.67;;;6.70;58.20;;;5.05;64.19;99767.19;8261495;28;20120;-88
2021/12/01 03:24:36;;;;;;;4.07;1.43;;;6.70;58.30;;;5.05;64.31;99764.63;8282064;28;20136;-88
2021/12/01 03:28:58;;;;;;;3.45;1.58;;;6.70;58.30;;;5.02;64.58;99761.31;8269458;28;20125;-87
2021/12/01 03:33:22;;;;;;;2.60;1.00;;;6.70;58.40;;;5.01;64.60;99757.06;8269427;28;20038;-88
2021/12/01 03:37:46;;;;;;;4.60;1.10;;;6.70;58.50;;;5.08;64.25;99758.47;8284535;28;20623;-88
2021/12/01 03:42:08;;;;;;;2.80;1.58;;;6.70;58.50;;;4.99;64.33;99736.44;8278564;28;20550;-86
2021/12/01 03:46:30;;;;;;;3.75;0.95;;;6.70;58.60;;;5.04;64.55;99743.97;8241936;28;20137;-88
2021/12/01 03:50:54;;;;;;;2.50;1.55;;;6.70;58.70;;;4.93;64.46;99710.03;8265075;28;20129;-88
2021/12/01 03:55:16;;;;;;;2.75;1.15;;;6.70;58.70;;;5.01;64.53;99715.66;8255447;28;20030;-86
2021/12/01 03:59:39;;;;;;;6.25;1.60;;;6.70;58.90;;;5.12;64.54;99722.91;8265169;28;20141;-86
2021/12/01 04:04:00;;;;;;;5.32;1.73;;;6.70;58.90;;;5.06;64.80;99703.34;8256392;28;20518;-86
2021/12/01 04:08:22;;;;;;;4.18;1.05;;;6.70;58.90;;;5.15;64.76;99702.88;8252081;28;20129;-87
2021/12/01 04:12:45;;;;;;;6.10;1.50;;;6.80;59.00;;;5.14;64.59;99690.88;8263320;28;20060;-86
2021/12/01 04:17:07;;;;;;;3.30;1.42;;;6.80;59.00;;;5.08;64.89;99683.41;8265580;28;20072;-86
2021/12/01 04:21:29;;;;;;;1.80;1.48;;;6.80;59.10;;;5.15;64.65;99679.59;8263376;28;20125;-86
2021/12/01 04:25:51;;;;;;;3.40;1.20;;;6.80;59.10;;;5.22;64.87;99672.38;8254024;28;20162;-85
2021/12/01 04:30:15;;;;;;;3.17;1.27;;;7.00;59.20;;;5.16;64.60;99652.81;8260746;28;20042;-86
2021/12/01 04:34:37;;;;;;;2.55;1.10;;;6.90;59.20;;;5.26;64.90;99659.19;8251982;28;20050;-85
2021/12/01 04:39:00;;;;;;;2.63;1.05;;;6.90;59.20;;;5.23;64.60;99649.00;8246521;28;20134;-86
2021/12/01 04:43:22;;;;;;;3.50;0.90;;;6.90;59.20;;;5.29;65.24;99635.75;8270326;28;20133;-86
2021/12/01 04:47:49;;;;;;;2.28;0.90;;;7.00;59.30;;;5.28;64.77;99634.06;8257535;28;20149;-86
2021/12/01 04:52:11;;;;;;;2.88;1.10;;;7.00;59.30;;;5.32;64.67;99627.00;8246264;28;20569;-86
2021/12/01 04:56:34;;;;;;;4.85;1.33;;;7.00;59.30;;;5.26;65.04;99596.25;8261412;28;20503;-86
2021/12/01 05:00:58;;;;;;;3.13;0.93;;;7.00;59.30;;;5.30;64.73;99590.00;8235781;28;20562;-85
2021/12/01 05:05:19;;;;;;;2.47;1.08;;;7.00;59.40;;;5.31;64.72;99582.13;8261853;28;20144;-85
2021/12/01 05:09:41;;;;;;;2.95;1.30;;;7.00;59.50;;;5.32;65.10;99576.06;8269298;28;20046;-85
2021/12/01 05:14:04;;;;;;;3.88;1.35;;;7.00;59.60;;;5.31;64.75;99560.59;8232174;28;20047;-85
2021/12/01 05:18:26;;;;;;;3.33;1.33;;;7.00;59.60;;;5.37;64.85;99562.88;8246660;28;20554;-84
2021/12/01 05:22:47;;;;;;;3.75;1.10;;;7.00;59.60;;;5.33;64.84;99533.72;8244311;28;20054;-83
2021/12/01 05:27:10;;;;;;;3.25;1.15;;;7.20;59.80;;;5.39;65.30;99534.31;8229897;28;20586;-86
2021/12/01 05:31:32;;;;;;;6.55;1.65;;;7.10;59.80;;;5.40;65.13;99525.63;8243336;28;20386;-87
2021/12/01 05:35:54;;;;;;;3.00;1.40;;;7.10;59.90;;;5.40;65.51;99505.78;8247130;28;20030;-86
2021/12/01 05:40:16;;;;;;;5.18;1.70;;;7.10;59.90;;;5.38;65.07;99486.91;8249805;28;20045;-86
2021/12/01 05:44:39;;;;;;;3.10;1.50;;;7.10;60.30;;;5.47;65.46;99488.97;8219293;28;20042;-85
2021/12/01 05:49:03;;;;;;;2.38;1.17;;;7.30;60.20;;;5.46;65.42;99474.38;8236002;28;20042;-85
2021/12/01 05:53:26;;;;;;;4.30;1.27;;;7.10;60.50;;;5.48;65.43;99466.50;8231519;28;20479;-85
2021/12/01 05:57:48;;;;;;;4.63;1.60;;;7.40;60.30;;;5.54;65.57;99466.19;8222281;28;20053;-85
2021/12/01 06:02:09;;;;;;;4.03;1.30;;;7.20;60.40;;;5.49;65.43;99448.31;8259516;28;20474;-86
2021/12/01 06:06:31;;;;;;;3.13;1.10;;;7.20;60.50;;;5.58;65.13;99441.78;8248961;28;20133;-87
2021/12/01 06:10:53;;;;;;;1.92;1.00;;;7.20;60.40;;;5.55;65.41;99410.88;8245723;28;20038;-87
2021/12/01 06:15:17;;;;;;;1.58;1.10;;;7.20;60.30;;;5.60;65.39;99395.94;8247403;28;20399;-87
2021/12/01 06:19:40;;;;;;;3.45;1.23;;;7.30;60.60;;;5.61;65.51;99394.16;8265541;28;20121;-86
2021/12/01 06:24:02;;;;;;;3.53;1.10;;;7.40;60.70;;;5.61;65.87;99376.88;8259669;28;20129;-87
2021/12/01 06:28:24;;;;;;;2.13;0.90;;;7.30;60.80;;;5.64;65.42;99373.28;8256107;28;20046;-87
2021/12/01 06:32:46;;;;;;;3.28;1.02;;;7.30;60.80;;;5.69;65.88;99363.50;8260645;28;20033;-86
2021/12/01 06:37:08;;;;;;;2.20;1.00;;;7.40;61.10;;;5.65;65.46;99349.91;8255525;28;20142;-88
2021/12/01 06:41:29;;;;;;;3.30;1.30;;;7.40;61.20;;;5.68;65.58;99351.47;8262253;28;20133;-85
2021/12/01 06:45:51;;;;;;;3.70;1.27;;;7.40;61.50;;;5.80;66.15;99353.34;8258612;28;20042;-85
2021/12/01 06:50:16;;;;;;;1.52;0.93;;;7.40;62.20;;;5.73;65.75;99321.81;8242312;28;20100;-88
2021/12/01 06:54:38;;;;;;;1.90;0.80;;;7.40;62.00;;;5.80;65.48;99321.44;8248857;28;20392;-88
2021/12/01 06:59:00;;;;;;;2.22;1.23;;;7.40;62.40;;;5.87;65.63;99312.41;8251223;28;20129;-93
2021/12/01 07:03:22;;;;;;;1.58;1.10;;;7.50;62.90;;;5.89;66.34;99305.38;8225226;28;20137;-91
2021/12/01 07:07:44;;;;;;;1.95;0.90;;;7.50;62.40;;;5.83;65.55;99283.22;8263276;28;20133;-89
2021/12/01 07:12:06;;;;;;;1.52;0.82;;;7.50;63.00;;;5.87;65.99;99264.00;8255144;28;20468;-92
2021/12/01 07:16:29;;;;;;;1.20;0.82;;;7.60;62.80;;;5.95;65.89;99269.59;8242663;28;20133;-91
2021/12/01 07:20:51;;;;;;;0.80;0.80;;;7.60;62.90;;;6.02;66.14;99267.47;8256965;28;20137;-88
2021/12/01 07:25:13;;;;;;;1.52;0.70;;;8.00;63.40;;;6.05;66.28;99269.88;8240946;28;20137;-89
2021/12/01 07:29:35;;;;;;;0.98;0.70;;;7.70;62.80;;;6.18;66.32;99275.16;8235581;28;20129;-90
2021/12/01 07:33:57;;;;;;;0.77;0.68;;;7.70;62.90;;;6.15;66.25;99237.28;8273708;28;20046;-89
2021/12/01 07:38:19;;;;;;;2.00;1.10;;;7.80;63.10;;;6.20;66.33;99227.47;8255809;28;20124;-87
2021/12/01 07:42:41;;;;;;;1.95;1.10;;;7.80;63.10;;;6.24;66.26;99216.91;8263825;28;20586;-89
2021/12/01 07:47:03;;;;;;;1.05;1.00;;;7.90;63.50;;;6.26;66.00;99194.34;8253822;28;20042;-90
2021/12/01 07:51:25;;;;;;;1.00;0.90;;;7.90;63.40;;;6.36;66.53;99201.44;8264004;28;20132;-90
2021/12/01 07:55:47;;;;;;;1.17;1.10;;;7.90;63.10;;;6.42;66.38;99184.66;8248784;28;20035;-90
2021/12/01 08:00:10;;;;;;;1.40;1.10;;;8.10;63.60;;;6.44;66.13;99177.63;8262082;28;20562;-93
2021/12/01 08:04:33;;;;;;;1.50;0.95;;;8.00;63.80;;;6.53;66.21;99168.44;8264622;28;20150;-92
2021/12/01 08:13:05;;;;;;;0.80;0.73;;;8.20;63.70;;;6.51;66.26;99121.00;8313168;28;20046;-91
2021/12/01 08:17:27;;;;;;;0.80;0.80;;;8.30;64.30;;;6.73;66.75;99155.03;8283715;28;20124;-92
2021/12/01 08:21:50;;;;;;;0.80;0.80;;;8.30;63.70;;;6.79;66.98;99133.03;8296808;23;20144;-81
2021/12/01 08:26:12;;;;;;;1.10;1.10;;;8.40;63.80;;;6.86;66.68;99135.16;8303169;28;20038;-78
2021/12/01 08:30:34;;;;;;;0.65;0.65;;;8.50;64.20;;;6.95;66.71;99123.31;8270575;28;20583;-82
2021/12/01 08:34:56;;;;;;;0.90;0.90;;;8.60;64.30;;;7.01;66.65;99120.31;8279954;28;20046;-79
2021/12/01 08:39:18;;;;;;;1.23;0.75;;;8.60;64.40;;;7.13;66.44;99115.22;8267666;28;20050;-81
2021/12/01 08:43:40;;;;;;;1.00;0.90;;;8.70;64.90;;;7.20;66.99;99103.50;8268355;28;20148;-82
2021/12/01 08:48:04;;;;;;;0.95;0.80;;;8.80;65.60;;;7.26;66.86;99106.53;8284228;28;20044;-85
2021/12/01 08:52:26;;;;;;;0.85;0.70;;;8.90;65.10;;;7.33;66.69;99093.97;8261588;28;20140;-80
2021/12/01 08:56:48;;;;;;;0.65;0.65;;;9.00;65.70;;;7.42;66.76;99090.72;8271167;28;20132;-80
2021/12/01 09:01:10;;;;;;;0.60;0.60;;;9.00;65.10;;;7.46;66.93;99079.22;8254252;28;20657;-80
2021/12/01 09:05:32;;;;;;;0.65;0.60;;;9.10;64.90;;;7.53;67.04;99072.66;8268915;28;20143;-82
2021/12/01 09:09:54;;;;;;;0.63;0.63;;;9.20;65.20;;;7.67;66.57;99091.63;8283364;28;20053;-82
2021/12/01 09:14:18;;;;;;;0.70;0.70;;;9.20;65.00;;;7.69;66.81;99071.56;8256366;28;20113;-83
2021/12/01 09:18:40;;;;;;;0.82;0.80;;;9.30;65.00;;;7.74;66.94;99059.91;8277385;28;20132;-82
2021/12/01 09:23:03;;;;;;;0.77;0.77;;;9.30;64.60;;;7.78;67.10;99052.75;8264280;28;20439;-79
2021/12/01 09:27:25;;;;;;;0.70;0.70;;;9.40;65.00;;;7.88;67.05;99061.53;8284827;28;20452;-83
2021/12/01 09:31:47;;;;;;;0.73;0.73;;;9.50;65.20;;;7.89;67.06;99039.81;8278385;28;20046;-84
2021/12/01 09:36:09;;;;;;;0.93;0.93;;;9.50;65.60;;;7.92;67.04;99028.38;8291959;28;20490;-84
2021/12/01 09:40:31;;;;;;;0.70;0.70;;;9.50;65.20;;;8.01;67.06;99016.50;8270147;28;20042;-87
2021/12/01 09:44:54;;;;;;;0.70;0.70;;;9.60;64.90;;;8.01;66.88;99012.13;8267222;28;20491;-85
2021/12/01 09:49:16;;;;;;;0.60;0.60;;;9.60;64.70;;;8.08;66.46;99017.72;8274446;28;20068;-83
2021/12/01 09:53:38;;;;;;;0.85;0.85;;;9.70;64.70;;;8.01;67.22;99000.91;8279041;28;20438;-84
2021/12/01 09:58:16;;;;;;;0.60;0.60;;;9.70;64.80;;;8.09;67.02;99001.16;8285354;28;20042;-84
2021/12/01 10:02:37;;;;;;;1.48;0.85;;;9.70;64.70;;;8.14;66.91;99001.66;8275567;28;20042;-83
2021/12/01 10:07:33;;;;;;;0.80;0.80;;;9.70;64.60;;;8.16;67.28;98979.00;8294845;28;20044;-84
2021/12/01 10:12:05;;;;;;;0.80;0.80;;;9.70;65.30;;;8.18;66.96;98964.94;8234264;28;20048;-82
2021/12/01 10:16:31;;;;;;;0.80;0.80;;;9.80;65.00;;;8.14;66.71;98944.47;8265836;28;20668;-83
2021/12/01 10:21:09;;;;;;;0.88;0.88;;;9.80;64.60;;;8.22;66.90;98942.13;8259323;28;20035;-83
2021/12/01 10:25:31;;;;;;;0.80;0.80;;;9.80;65.10;;;8.22;66.87;98926.53;8275574;28;20045;-82
2021/12/01 10:29:53;;;;;;;1.98;1.00;;;9.80;65.00;;;8.26;67.08;98929.72;8287968;28;20052;-83
2021/12/01 10:34:35;;;;;;;0.88;0.88;;;9.80;65.30;;;8.25;67.16;98918.50;8265678;28;20314;-82
2021/12/01 10:39:06;;;;;;;1.40;1.10;;;9.80;65.20;;;8.17;67.52;98903.47;8292498;28;20037;-86
2021/12/01 10:43:41;;;;;;;0.75;0.75;;;9.80;65.00;;;8.20;67.10;98902.41;8289298;28;20136;-85
2021/12/01 10:48:08;;;;;;;0.80;0.80;;;9.90;65.00;;;8.27;67.08;98876.78;8283867;28;20042;-83
2021/12/01 10:52:35;;;;;;;0.70;0.70;;;9.90;64.70;;;8.30;67.17;98884.34;8269670;28;20040;-83
2021/12/01 10:57:21;;;;;;;0.93;0.90;;;9.90;64.70;;;8.31;67.48;98873.81;8269971;28;20125;-81
2021/12/01 11:01:44;;;;;;;0.80;0.80;;;9.90;65.10;;;8.31;67.35;98868.63;8272250;28;20133;-81
2021/12/01 11:06:20;;;;;;;0.70;0.70;;;9.90;64.50;;;8.31;67.41;98850.41;8279132;28;20048;-82
2021/12/01 11:11:03;;;;;;;5.25;1.27;;;9.90;64.60;;;8.36;67.18;98852.69;8274931;28;20454;-81
2021/12/01 11:15:31;;;;;;;1.00;0.90;;;10.00;64.80;;;8.43;67.05;98863.50;8301683;28;20048;-81
2021/12/01 11:19:57;;;;;;;0.70;0.70;;;10.00;64.70;;;8.33;67.25;98830.34;8272009;28;20052;-81
2021/12/01 11:24:22;;;;;;;0.88;0.88;;;10.00;64.90;;;8.40;67.31;98833.34;8297693;28;20132;-82
2021/12/01 11:28:51;;;;;;;0.70;0.70;;;10.00;64.70;;;8.31;67.31;98815.78;8266549;28;20137;-82
2021/12/01 11:33:17;;;;;;;0.73;0.73;;;10.00;64.70;;;8.41;67.47;98811.56;8278981;28;20056;-83
2021/12/01 11:37:39;;;;;;;0.90;0.90;;;10.00;64.80;;;8.39;66.99;98805.66;8280241;28;20133;-81
2021/12/01 11:42:01;;;;;;;0.90;0.90;;;10.10;65.10;;;8.47;67.27;98800.69;8265374;28;20514;-81
2021/12/01 11:46:23;;;;;;;1.23;1.13;;;10.00;65.20;;;8.47;67.16;98792.06;8273169;28;20129;-83
2021/12/01 11:51:02;;;;;;;0.98;0.98;;;10.00;65.10;;;8.51;67.37;98775.28;8284861;28;20120;-81
2021/12/01 11:55:49;;;;;;;0.98;0.90;;;10.00;65.40;;;8.50;67.33;98766.63;8293890;28;20406;-82
2021/12/01 12:00:12;;;;;;;0.80;0.80;;;10.00;65.50;;;8.48;67.42;98749.47;8288540;28;20128;-81
2021/12/01 12:04:37;;;;;;;0.82;0.82;;;10.10;65.10;;;8.54;67.24;98759.44;8283799;28;20132;-81
2021/12/01 12:09:05;;;;;;;0.80;0.80;;;10.10;65.10;;;8.49;67.30;98735.56;8278183;28;20133;-84
2021/12/01 12:13:27;;;;;;;0.73;0.73;;;10.10;65.40;;;8.51;67.20;98737.09;8292326;28;20052;-84
2021/12/01 12:17:49;;;;;;;0.70;0.70;;;10.10;64.90;;;8.52;67.02;98704.09;8275488;28;20128;-83
2021/12/01 12:22:38;;;;;;;0.80;0.80;;;10.10;64.90;;;8.60;67.50;98714.72;8287777;28;20117;-85
2021/12/01 12:27:02;;;;;;;0.80;0.80;;;10.10;65.00;;;8.56;66.97;98701.13;8245939;28;20495;-84
2021/12/01 12:31:27;;;;;;;0.60;0.60;;;10.10;64.70;;;8.57;67.08;98689.78;8291328;28;20132;-85
2021/12/01 12:35:53;;;;;;;0.90;0.90;;;10.20;64.80;;;8.56;67.41;98666.47;8262031;28;20049;-84
2021/12/01 12:40:20;;;;;;;0.80;0.80;;;10.20;64.80;;;8.71;67.23;98683.47;8298252;28;20124;-85
2021/12/01 12:44:50;;;;;;;0.85;0.85;;;10.20;64.80;;;8.59;67.36;98663.66;8300082;28;20134;-90
2021/12/01 12:49:41;;;;;;;0.68;0.68;;;10.20;64.80;;;8.64;67.72;98667.53;8276291;28;20128;-84
2021/12/01 12:54:04;;;;;;;0.80;0.80;;;10.20;64.80;;;8.63;67.26;98650.25;8282703;28;20133;-89
2021/12/01 12:58:37;;;;;;;0.70;0.70;;;10.20;64.70;;;8.69;67.68;98650.69;8289518;28;20133;-89
2021/12/01 13:03:22;;;;;;;0.70;0.70;;;10.30;64.60;;;8.65;67.17;98639.72;8297684;28;20128;-85
2021/12/01 13:07:47;;;;;;;0.80;0.80;;;10.30;64.60;;;8.64;66.79;98625.91;8281967;28;20121;-87
2021/12/01 13:12:09;;;;;;;0.60;0.60;;;10.30;64.50;;;8.67;67.46;98621.38;8278089;28;20118;-87
2021/12/01 13:16:31;;;;;;;0.95;0.95;;;10.30;64.40;;;8.81;66.86;98636.72;8264360;28;20133;-86
2021/12/01 13:20:59;;;;;;;0.80;0.80;;;10.30;64.30;;;8.84;67.26;98620.84;8262001;28;20447;-89
2021/12/01 13:25:21;;;;;;;0.68;0.68;;;10.40;64.40;;;8.81;67.45;98610.69;8291786;28;20140;-86
2021/12/01 13:29:43;;;;;;;0.65;0.65;;;10.40;64.30;;;8.86;67.35;98606.75;8281389;28;20140;-85
2021/12/01 13:34:09;;;;;;;0.70;0.70;;;10.40;64.10;;;8.84;67.71;98589.63;8289971;28;20149;-86
2021/12/01 13:38:33;;;;;;;;;;;10.40;64.10;;;8.77;67.14;98578.88;8282595;28;20136;-87
2021/12/01 13:42:55;;;;;;;1.02;0.80;;;10.40;64.10;;;8.91;67.68;98587.31;8273328;28;20016;-87
2021/12/01 13:47:26;;;;;;;0.75;0.60;;;10.50;63.90;;;8.91;67.14;98580.34;8305666;28;20105;-90
2021/12/01 13:51:49;;;;;;;0.70;0.70;;;10.50;64.00;;;8.79;66.97;98550.94;8278056;28;20573;-84
2021/12/01 13:56:25;;;;;;;0.63;0.60;;;10.50;63.90;;;8.97;67.09;98563.41;8314553;28;20056;-87
2021/12/01 14:00:54;;;;;;;0.80;0.80;;;10.50;63.70;;;8.90;67.37;98536.22;8296943;28;20113;-84
2021/12/01 14:05:23;;;;;;;0.75;0.75;;;10.50;63.70;;;9.03;67.33;98547.25;8285365;28;20622;-86
2021/12/01 14:09:58;;;;;;;1.55;0.73;;;10.40;63.50;;;9.04;67.47;98543.69;8282719;28;20136;-89
2021/12/01 14:14:22;;;;;;;0.80;0.80;;;10.60;63.70;;;9.00;67.39;98524.09;8266983;28;20125;-83
2021/12/01 14:18:44;;;;;;;1.17;1.08;;;10.80;63.70;;;9.02;67.19;98514.38;8293694;28;20137;-87
2021/12/01 14:23:06;;;;;;;0.60;0.60;;;10.50;63.40;;;9.08;67.20;98519.06;8291508;23;20584;-79
2021/12/01 14:27:33;;;;;;;0.63;0.63;;;10.60;63.40;;;9.09;67.25;98507.69;8283037;28;20121;-77
2021/12/01 14:32:08;;;;;;;1.02;1.02;;;10.60;63.30;;;9.08;67.35;98490.44;8268226;28;20121;-78
2021/12/01 14:36:31;;;;;;;0.87;0.87;;;10.60;63.30;;;9.14;67.30;98494.28;8286492;28;20058;-78
2021/12/01 14:40:55;;;;;;;0.73;0.73;;;10.70;63.20;;;9.20;66.94;98488.53;8282905;28;20042;-78
2021/12/01 14:45:22;;;;;;;0.70;0.70;;;10.70;63.30;;;9.18;66.93;98465.25;8274749;28;20570;-78
2021/12/01 14:49:47;;;;;;;0.90;0.50;;;10.70;63.20;;;9.27;67.11;98472.25;8271556;28;20049;-77
2021/12/01 14:54:19;;;;;;;0.50;0.50;;;10.80;63.10;;;9.26;66.84;98454.16;8306784;28;20038;-79
2021/12/01 14:58:50;;;;;;;0.75;0.75;;;10.80;63.10;;;9.25;66.95;98437.72;8299966;28;20044;-78
2021/12/01 15:03:20;;;;;;;0.70;0.70;;;10.80;63.00;;;9.31;67.29;98425.94;8284622;28;20602;-77
2021/12/01 15:07:47;;;;;;;0.70;0.70;;;10.80;62.80;;;9.37;67.09;98432.38;8278932;28;20578;-78
2021/12/01 15:12:30;;;;;;;0.60;0.60;;;10.90;62.90;;;9.32;67.44;98414.59;8291954;28;20049;-77
2021/12/01 15:16:51;;;;;;;0.65;0.65;;;10.80;62.70;;;9.33;66.89;98400.59;8285506;28;20471;-78
2021/12/01 15:21:22;;;;;;;2.35;1.50;;;10.90;63.30;;;9.41;67.12;98402.53;8294442;28;20045;-78
2021/12/01 15:25:44;;;;;;;0.70;0.70;;;10.90;62.50;;;9.39;67.20;98397.44;8280231;28;20048;-79
2021/12/01 15:30:06;;;;;;;0.50;0.50;;;10.90;63.10;;;9.47;66.77;98394.97;8298354;28;20048;-78
2021/12/01 15:34:30;;;;;;;0.80;0.80;;;11.00;62.30;;;9.51;66.80;98390.34;8287976;28;20048;-77
2021/12/01 15:38:52;;;;;;;0.57;0.57;;;11.00;62.10;;;9.55;66.58;98401.31;8283241;28;20136;-78
2021/12/01 15:43:14;;;;;;;0.52;0.52;;;11.10;62.10;;;9.53;66.91;98385.81;8297257;28;20132;-79
2021/12/01 15:47:36;;;;;;;0.50;0.50;;;11.10;61.90;;;9.52;66.83;98379.78;8278571;28;20034;-78
2021/12/01 15:51:58;;;;;;;1.02;0.93;;;11.10;61.70;;;9.58;66.84;98378.41;8294784;28;20560;-78
2021/12/01 15:56:20;;;;;;;1.88;0.70;;;11.00;61.60;;;9.63;66.75;98378.81;8293254;28;20422;-77
2021/12/01 16:00:41;;;;;;;0.60;0.60;;;11.10;61.40;;;9.71;66.94;98376.34;8294603;28;20132;-78
2021/12/01 16:05:04;;;;;;;0.82;0.70;;;11.10;61.50;;;9.69;66.17;98354.00;8296704;28;20586;-79
2021/12/01 16:09:26;;;;;;;0.40;0.40;;;11.30;60.80;;;9.69;66.11;98336.59;8279686;28;20326;-78
2021/12/01 16:13:48;;;;;;;0.60;0.60;;;11.30;61.20;;;9.82;66.79;98349.31;8273580;28;20045;-81
2021/12/01 16:18:10;;;;;;;0.60;0.60;;;11.30;61.30;;;9.77;66.50;98330.66;8279898;28;20139;-78
2021/12/01 16:22:32;;;;;;;0.82;0.82;;;11.40;61.00;;;9.84;66.19;98328.34;8280565;28;20144;-79
2021/12/01 16:26:53;;;;;;;0.70;0.70;;;11.40;60.80;;;9.87;66.72;98320.25;8280616;28;20518;-79
2021/12/01 16:31:17;;;;;;;0.55;0.52;;;11.40;60.80;;;9.85;66.60;98306.53;8294878;28;20137;-79
2021/12/01 16:35:39;;;;;;;0.60;0.60;;;11.40;60.80;;;9.91;66.69;98313.78;8287045;28;20045;-77
2021/12/01 16:40:04;;;;;;;0.75;0.75;;;11.40;60.50;;;9.96;65.95;98307.19;8286867;28;20048;-78
2021/12/01 16:44:26;;;;;;;0.85;0.60;;;11.50;60.60;;;9.99;66.24;98290.47;8290671;28;20137;-78
2021/12/01 16:48:49;;;;;;;0.70;0.70;;;11.50;60.40;;;10.01;66.23;98287.69;8289348;28;20124;-79
2021/12/01 16:53:11;;;;;;;0.40;0.40;;;11.50;60.10;;;10.02;65.96;98281.50;8282039;28;20141;-79
2021/12/01 16:57:34;;;;;;;1.55;0.70;;;11.60;60.60;;;10.01;66.39;98266.84;8290926;28;20418;-79
2021/12/01 17:01:59;;;;;;;0.40;0.40;;;11.60;60.40;;;10.05;66.49;98269.03;8287535;28;20133;-78
2021/12/01 17:06:37;;;;;;;0.77;0.60;;;11.60;60.30;;;10.05;66.30;98263.81;8314983;28;20136;-79
2021/12/01 17:10:59;;;;;;;0.70;0.70;;;11.60;60.30;;;10.12;66.43;98264.06;8290667;28;20132;-79
2021/12/01 17:15:21;;;;;;;0.50;0.50;;;11.60;60.00;;;10.09;66.01;98249.50;8291395;28;20045;-79
2021/12/01 17:19:44;;;;;;;0.93;0.63;;;11.60;60.30;;;10.14;66.19;98254.31;8301721;28;20137;-79
2021/12/01 17:24:05;;;;;;;0.50;0.50;;;11.70;60.40;;;10.17;66.29;98248.81;8289348;28;20038;-80
2021/12/01 17:28:28;;;;;;;0.43;0.43;;;11.70;60.40;;;10.22;66.21;98254.41;8287736;28;20128;-77
2021/12/01 17:32:51;;;;;;;0.40;0.40;;;11.70;60.20;;;10.23;66.11;98236.97;8279992;28;20160;-78
2021/12/01 17:37:13;;;;;;;0.50;0.50;;;11.70;60.40;;;10.24;65.77;98226.41;8272271;28;20065;-79
2021/12/01 17:41:35;;;;;;;0.47;0.47;;;11.80;60.20;;;10.27;65.65;98220.09;8299474;28;20570;-79
2021/12/01 17:46:00;;;;;;;0.60;0.60;;;11.80;60.30;;;10.25;66.09;98214.19;8294095;28;20410;-78
2021/12/01 17:50:23;;;;;;;0.65;0.65;;;11.80;60.20;;;10.32;65.82;98233.53;8282155;28;20152;-78
2021/12/01 17:54:45;;;;;;;0.70;0.70;;;11.80;60.10;;;10.31;66.46;98211.84;8284241;28;20042;-79
2021/12/01 17:59:07;;;;;;;1.20;1.10;;;11.90;60.00;;;10.37;66.29;98216.50;8289194;28;20037;-79
2021/12/01 18:03:29;;;;;;;1.60;1.00;;;11.90;59.80;;;10.41;66.15;98220.44;8285120;28;20136;-78
2021/12/01 18:07:51;;;;;;;1.27;1.17;;;11.90;60.10;;;10.41;66.17;98217.00;8269520;28;20129;-79
2021/12/01 18:12:13;;;;;;;1.20;1.10;;;12.00;60.10;;;10.49;65.72;98224.13;8260348;28;20064;-80
2021/12/01 18:16:35;;;;;;;0.75;0.75;;;12.00;60.00;;;10.50;66.13;98225.75;8269104;28;20048;-77
2021/12/01 18:20:58;;;;;;;1.15;1.05;;;12.00;60.00;;;10.46;66.03;98214.78;8282345;28;20041;-78
2021/12/01 18:25:19;;;;;;;1.02;0.90;;;12.00;60.00;;;10.47;66.07;98208.59;8275662;28;20554;-78
2021/12/01 18:29:41;;;;;;;1.30;1.20;;;12.00;59.90;;;10.53;65.66;98215.00;8296841;28;20053;-79
2021/12/01 18:34:04;;;;;;;1.02;0.88;;;12.00;59.90;;;10.54;66.09;98216.66;8274183;28;20051;-78
2021/12/01 18:38:25;;;;;;;0.63;0.63;;;12.00;60.00;;;10.58;65.43;98208.38;8257280;28;20056;-78
2021/12/01 18:42:49;;;;;;;0.70;0.70;;;12.10;59.90;;;10.58;65.73;98218.00;8271282;28;20044;-76
2021/12/01 18:47:10;;;;;;;0.70;0.70;;;12.00;59.90;;;10.60;65.69;98198.63;8281897;28;20061;-77
2021/12/01 18:51:32;;;;;;;0.65;0.60;;;12.10;59.90;;;10.60;65.59;98203.84;8274133;28;20050;-79
2021/12/01 18:55:54;;;;;;;0.73;0.73;;;12.10;59.90;;;10.51;65.53;98168.22;8270448;28;20418;-79
2021/12/01 19:00:20;;;;;;;0.60;0.60;;;12.10;59.90;;;10.47;65.34;98173.88;8284916;28;20034;-78
2021/12/01 19:04:41;;;;;;;;;;;12.10;59.70;;;10.69;65.81;98206.53;8289697;28;20511;-80
2021/12/01 19:09:05;;;;;;;1.30;0.60;;;12.10;59.70;;;10.62;65.84;98196.69;8281229;28;20446;-79
2021/12/01 19:13:27;;;;;;;0.50;0.50;;;12.20;59.30;;;10.73;66.07;98190.44;8307351;28;20506;-79
2021/12/01 19:17:55;;;;;;;0.60;0.60;;;12.20;59.60;;;10.66;65.85;98160.69;8279090;28;20483;-78
2021/12/01 19:22:16;;;;;;;0.47;0.47;;;12.20;59.30;;;10.73;65.34;98172.16;8272226;28;20045;-79
2021/12/01 19:26:39;;;;;;;0.50;0.50;;;12.20;59.30;;;10.75;65.31;98167.63;8299368;28;20041;-77
2021/12/01 19:31:01;;;;;;;0.60;0.60;;;12.20;59.10;;;10.76;65.39;98160.63;8283317;28;20134;-78
2021/12/01 19:35:25;;;;;;;0.60;0.60;;;12.30;59.30;;;10.76;65.28;98168.44;8296866;28;20049;-77
2021/12/01 19:39:47;;;;;;;0.75;0.75;;;12.30;59.10;;;10.76;65.91;98163.22;8268373;28;20046;-79
2021/12/01 19:44:11;;;;;;;0.60;0.60;;;12.30;58.90;;;10.77;64.65;98157.03;8279406;28;20411;-77
2021/12/01 19:48:34;;;;;;;0.70;0.60;;;12.20;58.80;;;10.74;65.12;98136.44;8280263;28;20050;-78
2021/12/01 19:53:00;;;;;;;0.55;0.55;;;12.20;59.00;;;10.71;64.62;98141.97;8301252;28;20545;-79
2021/12/01 19:57:22;;;;;;;0.60;0.60;;;12.20;58.80;;;10.68;65.26;98139.66;8293022;28;20060;-77
2021/12/01 20:01:44;;;;;;;0.70;0.70;;;12.20;58.70;;;10.72;64.81;98148.81;8300690;28;20049;-80
2021/12/01 20:06:09;;;;;;;0.70;0.70;;;12.20;58.60;;;10.63;65.07;98142.72;8290957;28;20057;-80
2021/12/01 20:10:31;;;;;;;0.57;0.50;;;12.20;58.70;;;10.69;64.95;98156.94;8297929;28;20159;-78
2021/12/01 20:14:53;;;;;;;0.70;0.70;;;12.10;58.60;;;10.65;64.85;98148.59;8296771;28;20527;-78
2021/12/01 20:19:15;;;;;;;0.57;0.57;;;12.10;58.50;;;10.57;64.50;98149.34;8283043;28;20052;-78
2021/12/01 20:24:32;;;;;;;0.77;0.77;;;12.20;58.50;;;10.68;65.18;98155.31;8328028;23;20119;-93
2021/12/01 20:29:34;;;;;;;0.80;0.80;;;12.30;58.30;;;10.31;64.73;98104.06;8304853;28;20124;-95
2021/12/01 20:33:56;;;;;;;0.95;0.95;;;12.10;57.60;;;10.58;64.83;98135.31;8267131;28;20121;-86
2021/12/01 20:38:20;;;;;;;0.80;0.80;;;12.10;57.80;;;10.65;64.98;98146.00;8307032;28;20513;-92
2021/12/01 20:42:47;;;;;;;0.95;0.88;;;12.10;58.10;;;10.63;65.00;98159.19;8291064;28;20125;-94
2021/12/01 20:47:27;;;;;;;2.35;0.90;;;12.10;58.10;;;10.60;64.47;98153.44;8303984;28;20136;-93
2021/12/01 20:56:37;;;;;;;0.73;0.70;;;12.10;57.90;;;10.54;64.74;98164.50;8282277;28;20037;-93
2021/12/01 21:05:47;;;;;;;0.80;0.80;;;12.00;58.10;;;10.43;64.66;98147.25;8268051;28;20518;-90
2021/12/01 21:10:10;;;;;;;0.75;0.75;;;12.00;58.10;;;10.56;64.42;98178.22;8265776;28;20124;-89
2021/12/01 21:14:32;;;;;;;1.77;1.00;;;12.10;58.20;;;10.49;64.28;98182.38;8248833;28;20045;-90
2021/12/01 21:18:54;;;;;;;1.00;0.80;;;12.00;57.80;;;10.45;64.29;98201.88;8280270;28;20128;-95